sensor_id;sensor_type;location;lat;lon;timestamp;P1;durP1;ratioP1;P2;durP2;ratioP2
6955;SDS011;50345;51.136;16.886;2023-03-05T00:01:14;6.78;;;2.85;;
6955;SDS011;50345;51.136;16.886;2023-03-05T00:03:42;4.80;;;2.83;;
6955;SDS011;50345;51.136;16.886;2023-03-05T00:06:08;4.60;;;2.77;;
6955;SDS011;50345;51.136;16.886;2023-03-05T00:08:34;4.63;;;2.60;;
6955;SDS011;50345;51.136;16.886;2023-03-05T00:11:01;4.75;;;2.95;;
6955;SDS011;50345;51.136;16.886;2023-03-05T00:13:31;5.82;;;4.20;;
6955;SDS011;50345;51.136;16.886;2023-03-05T00:15:57;8.30;;;6.75;;
6955;SDS011;50345;51.136;16.886;2023-03-05T00:18:22;5.43;;;4.77;;
6955;SDS011;50345;51.136;16.886;2023-03-05T00:20:48;6.93;;;5.40;;
6955;SDS011;50345;51.136;16.886;2023-03-05T00:23:15;4.88;;;4.47;;
6955;SDS011;50345;51.136;16.886;2023-03-05T00:25:41;5.07;;;4.30;;
6955;SDS011;50345;51.136;16.886;2023-03-05T00:28:07;4.85;;;4.40;;
6955;SDS011;50345;51.136;16.886;2023-03-05T00:30:33;5.13;;;4.53;;
6955;SDS011;50345;51.136;16.886;2023-03-05T00:32:59;11.57;;;5.88;;
6955;SDS011;50345;51.136;16.886;2023-03-05T00:35:26;7.97;;;4.85;;
6955;SDS011;50345;51.136;16.886;2023-03-05T00:37:51;5.90;;;5.27;;
6955;SDS011;50345;51.136;16.886;2023-03-05T00:40:17;6.63;;;4.60;;
6955;SDS011;50345;51.136;16.886;2023-03-05T00:42:43;8.23;;;4.95;;
6955;SDS011;50345;51.136;16.886;2023-03-05T00:45:09;5.10;;;4.37;;
6955;SDS011;50345;51.136;16.886;2023-03-05T00:47:35;5.82;;;4.40;;
6955;SDS011;50345;51.136;16.886;2023-03-05T00:50:01;5.23;;;4.30;;
6955;SDS011;50345;51.136;16.886;2023-03-05T00:52:28;6.60;;;4.63;;
6955;SDS011;50345;51.136;16.886;2023-03-05T00:54:53;9.33;;;4.80;;
6955;SDS011;50345;51.136;16.886;2023-03-05T00:57:19;7.93;;;4.70;;
6955;SDS011;50345;51.136;16.886;2023-03-05T00:59:45;5.90;;;4.47;;
6955;SDS011;50345;51.136;16.886;2023-03-05T01:02:10;7.43;;;4.83;;
6955;SDS011;50345;51.136;16.886;2023-03-05T01:04:36;7.80;;;5.03;;
6955;SDS011;50345;51.136;16.886;2023-03-05T01:07:02;11.83;;;7.47;;
6955;SDS011;50345;51.136;16.886;2023-03-05T01:09:28;12.80;;;8.27;;
6955;SDS011;50345;51.136;16.886;2023-03-05T01:11:54;16.33;;;11.63;;
6955;SDS011;50345;51.136;16.886;2023-03-05T01:14:20;14.13;;;12.70;;
6955;SDS011;50345;51.136;16.886;2023-03-05T01:16:46;11.10;;;9.93;;
6955;SDS011;50345;51.136;16.886;2023-03-05T01:19:12;12.13;;;7.93;;
6955;SDS011;50345;51.136;16.886;2023-03-05T01:21:40;13.27;;;9.35;;
6955;SDS011;50345;51.136;16.886;2023-03-05T01:24:06;13.20;;;8.85;;
6955;SDS011;50345;51.136;16.886;2023-03-05T01:26:32;10.43;;;6.53;;
6955;SDS011;50345;51.136;16.886;2023-03-05T01:28:58;11.20;;;6.53;;
6955;SDS011;50345;51.136;16.886;2023-03-05T01:31:24;8.40;;;6.03;;
6955;SDS011;50345;51.136;16.886;2023-03-05T01:33:53;11.57;;;7.13;;
6955;SDS011;50345;51.136;16.886;2023-03-05T01:36:19;9.70;;;7.07;;
6955;SDS011;50345;51.136;16.886;2023-03-05T01:38:46;8.40;;;6.07;;
6955;SDS011;50345;51.136;16.886;2023-03-05T01:41:12;12.75;;;6.72;;
6955;SDS011;50345;51.136;16.886;2023-03-05T01:43:40;12.18;;;7.85;;
6955;SDS011;50345;51.136;16.886;2023-03-05T01:54:26;18.20;;;8.27;;
6955;SDS011;50345;51.136;16.886;2023-03-05T01:56:55;12.20;;;7.75;;
6955;SDS011;50345;51.136;16.886;2023-03-05T01:59:22;12.70;;;9.15;;
6955;SDS011;50345;51.136;16.886;2023-03-05T02:01:50;9.32;;;8.15;;
6955;SDS011;50345;51.136;16.886;2023-03-05T02:04:18;19.95;;;12.65;;
6955;SDS011;50345;51.136;16.886;2023-03-05T02:06:47;11.30;;;6.50;;
6955;SDS011;50345;51.136;16.886;2023-03-05T02:09:13;9.57;;;5.78;;
6955;SDS011;50345;51.136;16.886;2023-03-05T02:11:39;5.40;;;4.17;;
6955;SDS011;50345;51.136;16.886;2023-03-05T02:14:08;5.65;;;4.60;;
6955;SDS011;50345;51.136;16.886;2023-03-05T02:16:34;4.47;;;3.70;;
6955;SDS011;50345;51.136;16.886;2023-03-05T02:19:05;5.63;;;3.80;;
6955;SDS011;50345;51.136;16.886;2023-03-05T02:21:39;5.13;;;3.80;;
6955;SDS011;50345;51.136;16.886;2023-03-05T02:24:08;10.68;;;4.68;;
6955;SDS011;50345;51.136;16.886;2023-03-05T02:26:36;5.38;;;4.00;;
6955;SDS011;50345;51.136;16.886;2023-03-05T02:29:02;7.57;;;4.13;;
6955;SDS011;50345;51.136;16.886;2023-03-05T02:31:30;4.80;;;3.55;;
6955;SDS011;50345;51.136;16.886;2023-03-05T02:33:56;3.73;;;2.57;;
6955;SDS011;50345;51.136;16.886;2023-03-05T02:36:21;4.90;;;2.97;;
6955;SDS011;50345;51.136;16.886;2023-03-05T02:38:47;3.70;;;2.57;;
6955;SDS011;50345;51.136;16.886;2023-03-05T02:41:14;2.75;;;2.35;;
6955;SDS011;50345;51.136;16.886;2023-03-05T02:43:40;2.38;;;2.13;;
6955;SDS011;50345;51.136;16.886;2023-03-05T02:46:06;3.27;;;2.00;;
6955;SDS011;50345;51.136;16.886;2023-03-05T02:48:32;2.63;;;2.10;;
6955;SDS011;50345;51.136;16.886;2023-03-05T02:50:58;4.47;;;2.00;;
6955;SDS011;50345;51.136;16.886;2023-03-05T02:53:24;2.25;;;1.80;;
6955;SDS011;50345;51.136;16.886;2023-03-05T02:55:50;1.43;;;1.30;;
6955;SDS011;50345;51.136;16.886;2023-03-05T02:58:16;2.23;;;1.93;;
6955;SDS011;50345;51.136;16.886;2023-03-05T03:00:42;3.63;;;2.05;;
6955;SDS011;50345;51.136;16.886;2023-03-05T03:03:07;1.60;;;1.20;;
6955;SDS011;50345;51.136;16.886;2023-03-05T03:05:34;5.93;;;1.65;;
6955;SDS011;50345;51.136;16.886;2023-03-05T03:08:00;3.30;;;2.33;;
6955;SDS011;50345;51.136;16.886;2023-03-05T03:10:26;2.83;;;2.60;;
6955;SDS011;50345;51.136;16.886;2023-03-05T03:12:51;6.30;;;2.30;;
6955;SDS011;50345;51.136;16.886;2023-03-05T03:15:17;5.20;;;2.80;;
6955;SDS011;50345;51.136;16.886;2023-03-05T03:17:43;3.57;;;2.10;;
6955;SDS011;50345;51.136;16.886;2023-03-05T03:20:10;6.25;;;1.58;;
6955;SDS011;50345;51.136;16.886;2023-03-05T03:22:38;3.65;;;1.63;;
6955;SDS011;50345;51.136;16.886;2023-03-05T03:25:04;3.58;;;3.28;;
6955;SDS011;50345;51.136;16.886;2023-03-05T03:27:31;3.53;;;3.05;;
6955;SDS011;50345;51.136;16.886;2023-03-05T03:29:56;3.40;;;3.07;;
6955;SDS011;50345;51.136;16.886;2023-03-05T03:32:26;2.70;;;2.50;;
6955;SDS011;50345;51.136;16.886;2023-03-05T03:34:52;3.97;;;3.78;;
6955;SDS011;50345;51.136;16.886;2023-03-05T03:37:18;3.23;;;2.50;;
6955;SDS011;50345;51.136;16.886;2023-03-05T03:39:43;6.93;;;5.93;;
6955;SDS011;50345;51.136;16.886;2023-03-05T03:42:09;5.40;;;4.70;;
6955;SDS011;50345;51.136;16.886;2023-03-05T03:44:35;2.97;;;2.60;;
6955;SDS011;50345;51.136;16.886;2023-03-05T03:47:00;2.70;;;2.43;;
6955;SDS011;50345;51.136;16.886;2023-03-05T03:49:26;3.80;;;2.77;;
6955;SDS011;50345;51.136;16.886;2023-03-05T03:51:52;3.50;;;2.87;;
6955;SDS011;50345;51.136;16.886;2023-03-05T03:54:18;6.28;;;2.60;;
6955;SDS011;50345;51.136;16.886;2023-03-05T03:56:45;3.38;;;2.90;;
6955;SDS011;50345;51.136;16.886;2023-03-05T03:59:11;4.67;;;2.90;;
6955;SDS011;50345;51.136;16.886;2023-03-05T04:01:37;4.75;;;2.70;;
6955;SDS011;50345;51.136;16.886;2023-03-05T04:04:03;4.80;;;3.33;;
6955;SDS011;50345;51.136;16.886;2023-03-05T04:06:29;4.22;;;3.83;;
6955;SDS011;50345;51.136;16.886;2023-03-05T04:08:55;4.90;;;2.90;;
6955;SDS011;50345;51.136;16.886;2023-03-05T04:11:20;4.50;;;3.10;;
6955;SDS011;50345;51.136;16.886;2023-03-05T04:13:46;11.33;;;3.07;;
6955;SDS011;50345;51.136;16.886;2023-03-05T04:16:12;5.38;;;2.95;;
6955;SDS011;50345;51.136;16.886;2023-03-05T04:18:39;3.60;;;3.00;;
6955;SDS011;50345;51.136;16.886;2023-03-05T04:21:04;6.73;;;4.50;;
6955;SDS011;50345;51.136;16.886;2023-03-05T04:23:30;7.13;;;4.20;;
6955;SDS011;50345;51.136;16.886;2023-03-05T04:25:56;7.55;;;5.60;;
6955;SDS011;50345;51.136;16.886;2023-03-05T04:28:22;8.33;;;6.70;;
6955;SDS011;50345;51.136;16.886;2023-03-05T04:30:47;4.83;;;4.27;;
6955;SDS011;50345;51.136;16.886;2023-03-05T04:33:13;7.30;;;5.97;;
6955;SDS011;50345;51.136;16.886;2023-03-05T04:35:39;8.23;;;4.88;;
6955;SDS011;50345;51.136;16.886;2023-03-05T04:38:05;5.07;;;4.60;;
6955;SDS011;50345;51.136;16.886;2023-03-05T04:40:30;5.87;;;4.60;;
6955;SDS011;50345;51.136;16.886;2023-03-05T04:42:56;4.40;;;3.60;;
6955;SDS011;50345;51.136;16.886;2023-03-05T04:45:22;4.03;;;3.20;;
6955;SDS011;50345;51.136;16.886;2023-03-05T04:47:47;4.40;;;2.70;;
6955;SDS011;50345;51.136;16.886;2023-03-05T04:50:13;4.07;;;3.07;;
6955;SDS011;50345;51.136;16.886;2023-03-05T04:52:39;5.00;;;3.13;;
6955;SDS011;50345;51.136;16.886;2023-03-05T04:55:06;5.80;;;3.63;;
6955;SDS011;50345;51.136;16.886;2023-03-05T04:57:32;4.53;;;3.97;;
6955;SDS011;50345;51.136;16.886;2023-03-05T04:59:58;4.88;;;3.38;;
6955;SDS011;50345;51.136;16.886;2023-03-05T05:02:24;7.23;;;3.73;;
6955;SDS011;50345;51.136;16.886;2023-03-05T05:04:53;9.10;;;4.10;;
6955;SDS011;50345;51.136;16.886;2023-03-05T05:07:19;6.68;;;3.63;;
6955;SDS011;50345;51.136;16.886;2023-03-05T05:09:45;6.35;;;3.70;;
6955;SDS011;50345;51.136;16.886;2023-03-05T05:12:10;4.67;;;3.57;;
6955;SDS011;50345;51.136;16.886;2023-03-05T05:14:36;8.50;;;3.70;;
6955;SDS011;50345;51.136;16.886;2023-03-05T05:17:02;10.57;;;4.37;;
6955;SDS011;50345;51.136;16.886;2023-03-05T05:19:31;4.30;;;3.40;;
6955;SDS011;50345;51.136;16.886;2023-03-05T05:22:00;5.22;;;3.30;;
6955;SDS011;50345;51.136;16.886;2023-03-05T05:24:26;6.65;;;3.25;;
6955;SDS011;50345;51.136;16.886;2023-03-05T05:26:55;5.60;;;5.03;;
6955;SDS011;50345;51.136;16.886;2023-03-05T05:29:21;4.82;;;4.03;;
6955;SDS011;50345;51.136;16.886;2023-03-05T05:31:47;4.78;;;3.75;;
6955;SDS011;50345;51.136;16.886;2023-03-05T05:34:12;5.83;;;3.40;;
6955;SDS011;50345;51.136;16.886;2023-03-05T05:36:38;3.77;;;3.40;;
6955;SDS011;50345;51.136;16.886;2023-03-05T05:39:04;6.33;;;3.20;;
6955;SDS011;50345;51.136;16.886;2023-03-05T05:41:30;7.70;;;4.20;;
6955;SDS011;50345;51.136;16.886;2023-03-05T05:43:55;2.60;;;2.40;;
6955;SDS011;50345;51.136;16.886;2023-03-05T05:46:21;3.80;;;2.67;;
6955;SDS011;50345;51.136;16.886;2023-03-05T05:48:48;5.30;;;3.40;;
6955;SDS011;50345;51.136;16.886;2023-03-05T05:51:18;4.97;;;3.03;;
6955;SDS011;50345;51.136;16.886;2023-03-05T05:53:46;6.07;;;3.35;;
6955;SDS011;50345;51.136;16.886;2023-03-05T05:56:11;8.30;;;4.30;;
6955;SDS011;50345;51.136;16.886;2023-03-05T05:58:38;4.80;;;4.25;;
6955;SDS011;50345;51.136;16.886;2023-03-05T06:01:12;8.30;;;4.05;;
6955;SDS011;50345;51.136;16.886;2023-03-05T06:03:39;5.50;;;3.95;;
6955;SDS011;50345;51.136;16.886;2023-03-05T06:06:09;7.50;;;4.73;;
6955;SDS011;50345;51.136;16.886;2023-03-05T06:08:35;8.15;;;4.72;;
6955;SDS011;50345;51.136;16.886;2023-03-05T06:11:01;11.37;;;6.87;;
6955;SDS011;50345;51.136;16.886;2023-03-05T06:13:26;11.30;;;6.00;;
6955;SDS011;50345;51.136;16.886;2023-03-05T06:15:59;13.23;;;6.93;;
6955;SDS011;50345;51.136;16.886;2023-03-05T06:18:27;14.68;;;9.75;;
6955;SDS011;50345;51.136;16.886;2023-03-05T06:21:03;14.87;;;10.33;;
6955;SDS011;50345;51.136;16.886;2023-03-05T06:23:31;14.45;;;8.27;;
6955;SDS011;50345;51.136;16.886;2023-03-05T06:25:58;8.98;;;4.80;;
6955;SDS011;50345;51.136;16.886;2023-03-05T06:28:24;10.68;;;6.35;;
6955;SDS011;50345;51.136;16.886;2023-03-05T06:30:50;10.80;;;6.53;;
6955;SDS011;50345;51.136;16.886;2023-03-05T06:33:31;13.25;;;7.07;;
6955;SDS011;50345;51.136;16.886;2023-03-05T06:35:57;12.80;;;8.68;;
6955;SDS011;50345;51.136;16.886;2023-03-05T06:38:22;16.70;;;9.27;;
6955;SDS011;50345;51.136;16.886;2023-03-05T06:40:48;11.53;;;7.17;;
6955;SDS011;50345;51.136;16.886;2023-03-05T06:43:14;13.90;;;7.43;;
6955;SDS011;50345;51.136;16.886;2023-03-05T06:45:39;9.50;;;5.90;;
6955;SDS011;50345;51.136;16.886;2023-03-05T06:48:05;15.53;;;7.40;;
6955;SDS011;50345;51.136;16.886;2023-03-05T06:50:33;17.10;;;7.10;;
6955;SDS011;50345;51.136;16.886;2023-03-05T06:52:59;15.40;;;6.90;;
6955;SDS011;50345;51.136;16.886;2023-03-05T06:55:25;10.20;;;5.93;;
6955;SDS011;50345;51.136;16.886;2023-03-05T06:57:50;11.63;;;6.00;;
6955;SDS011;50345;51.136;16.886;2023-03-05T07:00:16;14.73;;;6.67;;
6955;SDS011;50345;51.136;16.886;2023-03-05T07:02:41;8.00;;;5.70;;
6955;SDS011;50345;51.136;16.886;2023-03-05T07:05:07;12.30;;;6.73;;
6955;SDS011;50345;51.136;16.886;2023-03-05T07:07:33;11.27;;;5.33;;
6955;SDS011;50345;51.136;16.886;2023-03-05T07:09:59;11.80;;;5.80;;
6955;SDS011;50345;51.136;16.886;2023-03-05T07:12:24;12.17;;;6.77;;
6955;SDS011;50345;51.136;16.886;2023-03-05T07:14:50;10.67;;;4.80;;
6955;SDS011;50345;51.136;16.886;2023-03-05T07:17:16;10.90;;;5.93;;
6955;SDS011;50345;51.136;16.886;2023-03-05T07:19:42;7.68;;;4.18;;
6955;SDS011;50345;51.136;16.886;2023-03-05T07:22:08;8.77;;;4.47;;
6955;SDS011;50345;51.136;16.886;2023-03-05T07:24:33;7.77;;;5.23;;
6955;SDS011;50345;51.136;16.886;2023-03-05T07:26:59;15.00;;;4.57;;
6955;SDS011;50345;51.136;16.886;2023-03-05T07:29:26;7.20;;;4.17;;
6955;SDS011;50345;51.136;16.886;2023-03-05T07:31:52;4.88;;;3.00;;
6955;SDS011;50345;51.136;16.886;2023-03-05T07:34:18;6.38;;;3.65;;
6955;SDS011;50345;51.136;16.886;2023-03-05T07:36:44;4.57;;;3.47;;
6955;SDS011;50345;51.136;16.886;2023-03-05T07:39:11;7.32;;;3.58;;
6955;SDS011;50345;51.136;16.886;2023-03-05T07:41:37;11.15;;;3.40;;
6955;SDS011;50345;51.136;16.886;2023-03-05T07:44:03;18.92;;;3.78;;
6955;SDS011;50345;51.136;16.886;2023-03-05T07:46:31;8.48;;;5.18;;
6955;SDS011;50345;51.136;16.886;2023-03-05T07:48:58;6.20;;;3.08;;
6955;SDS011;50345;51.136;16.886;2023-03-05T07:51:24;6.30;;;3.33;;
6955;SDS011;50345;51.136;16.886;2023-03-05T07:53:51;10.45;;;2.80;;
6955;SDS011;50345;51.136;16.886;2023-03-05T07:56:26;5.95;;;2.40;;
6955;SDS011;50345;51.136;16.886;2023-03-05T07:58:57;3.47;;;2.50;;
6955;SDS011;50345;51.136;16.886;2023-03-05T08:01:23;11.30;;;3.40;;
6955;SDS011;50345;51.136;16.886;2023-03-05T08:03:49;9.40;;;5.27;;
6955;SDS011;50345;51.136;16.886;2023-03-05T08:06:14;8.67;;;2.23;;
6955;SDS011;50345;51.136;16.886;2023-03-05T08:08:40;5.93;;;3.50;;
6955;SDS011;50345;51.136;16.886;2023-03-05T08:11:07;7.50;;;3.60;;
6955;SDS011;50345;51.136;16.886;2023-03-05T08:13:34;5.22;;;2.85;;
6955;SDS011;50345;51.136;16.886;2023-03-05T08:16:07;2.40;;;2.20;;
6955;SDS011;50345;51.136;16.886;2023-03-05T08:18:35;5.45;;;2.50;;
6955;SDS011;50345;51.136;16.886;2023-03-05T08:21:01;6.33;;;2.43;;
6955;SDS011;50345;51.136;16.886;2023-03-05T08:23:27;5.85;;;2.40;;
6955;SDS011;50345;51.136;16.886;2023-03-05T08:25:53;3.05;;;2.70;;
6955;SDS011;50345;51.136;16.886;2023-03-05T08:28:19;7.30;;;3.35;;
6955;SDS011;50345;51.136;16.886;2023-03-05T08:30:45;4.70;;;2.00;;
6955;SDS011;50345;51.136;16.886;2023-03-05T08:33:12;6.40;;;3.35;;
6955;SDS011;50345;51.136;16.886;2023-03-05T08:35:38;5.07;;;2.42;;
6955;SDS011;50345;51.136;16.886;2023-03-05T08:38:04;5.60;;;3.40;;
6955;SDS011;50345;51.136;16.886;2023-03-05T08:40:30;4.35;;;3.15;;
6955;SDS011;50345;51.136;16.886;2023-03-05T08:42:56;8.13;;;3.83;;
6955;SDS011;50345;51.136;16.886;2023-03-05T08:45:23;5.18;;;3.67;;
6955;SDS011;50345;51.136;16.886;2023-03-05T08:47:49;23.50;;;17.60;;
6955;SDS011;50345;51.136;16.886;2023-03-05T08:50:15;7.83;;;4.77;;
6955;SDS011;50345;51.136;16.886;2023-03-05T08:52:42;14.57;;;10.75;;
6955;SDS011;50345;51.136;16.886;2023-03-05T08:55:08;11.73;;;6.63;;
6955;SDS011;50345;51.136;16.886;2023-03-05T08:57:35;10.65;;;5.28;;
6955;SDS011;50345;51.136;16.886;2023-03-05T09:00:00;5.43;;;3.73;;
6955;SDS011;50345;51.136;16.886;2023-03-05T09:02:26;11.87;;;9.00;;
6955;SDS011;50345;51.136;16.886;2023-03-05T09:04:51;4.30;;;3.50;;
6955;SDS011;50345;51.136;16.886;2023-03-05T09:07:17;8.80;;;5.27;;
6955;SDS011;50345;51.136;16.886;2023-03-05T09:09:43;12.50;;;4.90;;
6955;SDS011;50345;51.136;16.886;2023-03-05T09:12:08;11.23;;;5.80;;
6955;SDS011;50345;51.136;16.886;2023-03-05T09:14:35;9.25;;;5.03;;
6955;SDS011;50345;51.136;16.886;2023-03-05T09:17:01;8.40;;;6.20;;
6955;SDS011;50345;51.136;16.886;2023-03-05T09:19:26;4.60;;;4.03;;
6955;SDS011;50345;51.136;16.886;2023-03-05T09:21:52;4.77;;;3.70;;
6955;SDS011;50345;51.136;16.886;2023-03-05T09:24:18;8.80;;;3.00;;
6955;SDS011;50345;51.136;16.886;2023-03-05T09:26:43;4.87;;;3.60;;
6955;SDS011;50345;51.136;16.886;2023-03-05T09:29:09;6.47;;;3.90;;
6955;SDS011;50345;51.136;16.886;2023-03-05T09:31:35;6.30;;;3.90;;
6955;SDS011;50345;51.136;16.886;2023-03-05T09:34:01;6.47;;;3.03;;
6955;SDS011;50345;51.136;16.886;2023-03-05T09:36:27;9.23;;;4.27;;
6955;SDS011;50345;51.136;16.886;2023-03-05T09:38:54;6.38;;;4.35;;
6955;SDS011;50345;51.136;16.886;2023-03-05T09:44:01;5.78;;;3.40;;
6955;SDS011;50345;51.136;16.886;2023-03-05T09:47:01;4.97;;;3.63;;
6955;SDS011;50345;51.136;16.886;2023-03-05T09:50:00;4.80;;;3.20;;
6955;SDS011;50345;51.136;16.886;2023-03-05T09:55:30;10.40;;;4.07;;
6955;SDS011;50345;51.136;16.886;2023-03-05T09:58:10;8.10;;;3.80;;
6955;SDS011;50345;51.136;16.886;2023-03-05T10:00:49;8.20;;;4.95;;
6955;SDS011;50345;51.136;16.886;2023-03-05T10:03:18;16.02;;;7.25;;
6955;SDS011;50345;51.136;16.886;2023-03-05T10:08:23;14.18;;;12.80;;
6955;SDS011;50345;51.136;16.886;2023-03-05T10:10:55;7.72;;;5.22;;
6955;SDS011;50345;51.136;16.886;2023-03-05T10:19:08;6.72;;;3.58;;
6955;SDS011;50345;51.136;16.886;2023-03-05T10:21:49;7.10;;;4.03;;
6955;SDS011;50345;51.136;16.886;2023-03-05T10:24:24;10.45;;;3.33;;
6955;SDS011;50345;51.136;16.886;2023-03-05T10:27:01;6.72;;;5.25;;
6955;SDS011;50345;51.136;16.886;2023-03-05T10:37:37;5.18;;;3.10;;
6955;SDS011;50345;51.136;16.886;2023-03-05T10:46:24;7.63;;;3.78;;
6955;SDS011;50345;51.136;16.886;2023-03-05T10:49:19;4.05;;;2.67;;
6955;SDS011;50345;51.136;16.886;2023-03-05T10:57:00;4.43;;;2.63;;
6955;SDS011;50345;51.136;16.886;2023-03-05T10:59:27;23.17;;;19.48;;
6955;SDS011;50345;51.136;16.886;2023-03-05T11:02:06;3.80;;;3.33;;
6955;SDS011;50345;51.136;16.886;2023-03-05T11:04:33;4.82;;;3.08;;
6955;SDS011;50345;51.136;16.886;2023-03-05T11:09:42;7.13;;;4.47;;
6955;SDS011;50345;51.136;16.886;2023-03-05T11:12:32;4.97;;;4.20;;
6955;SDS011;50345;51.136;16.886;2023-03-05T11:17:42;6.25;;;3.90;;
6955;SDS011;50345;51.136;16.886;2023-03-05T11:26:04;4.47;;;3.60;;
6955;SDS011;50345;51.136;16.886;2023-03-05T11:36:41;5.88;;;4.22;;
6955;SDS011;50345;51.136;16.886;2023-03-05T11:39:25;7.20;;;5.90;;
6955;SDS011;50345;51.136;16.886;2023-03-05T11:47:24;8.32;;;5.45;;
6955;SDS011;50345;51.136;16.886;2023-03-05T11:50:02;9.00;;;5.10;;
6955;SDS011;50345;51.136;16.886;2023-03-05T11:53:20;8.10;;;5.15;;
6955;SDS011;50345;51.136;16.886;2023-03-05T11:59:19;8.85;;;6.13;;
6955;SDS011;50345;51.136;16.886;2023-03-05T12:01:30;7.50;;;5.70;;
6955;SDS011;50345;51.136;16.886;2023-03-05T12:03:59;10.77;;;5.30;;
6955;SDS011;50345;51.136;16.886;2023-03-05T12:06:33;9.02;;;6.15;;
6955;SDS011;50345;51.136;16.886;2023-03-05T12:11:46;6.65;;;5.78;;
6955;SDS011;50345;51.136;16.886;2023-03-05T12:14:27;7.60;;;6.20;;
6955;SDS011;50345;51.136;16.886;2023-03-05T12:17:05;9.43;;;7.30;;
6955;SDS011;50345;51.136;16.886;2023-03-05T12:22:43;6.93;;;5.90;;
6955;SDS011;50345;51.136;16.886;2023-03-05T12:28:16;6.47;;;5.45;;
6955;SDS011;50345;51.136;16.886;2023-03-05T12:31:02;10.05;;;7.25;;
6955;SDS011;50345;51.136;16.886;2023-03-05T12:33:39;4.60;;;4.20;;
6955;SDS011;50345;51.136;16.886;2023-03-05T12:38:49;7.75;;;4.90;;
6955;SDS011;50345;51.136;16.886;2023-03-05T12:46:34;6.20;;;4.85;;
6955;SDS011;50345;51.136;16.886;2023-03-05T12:51:47;8.60;;;5.22;;
6955;SDS011;50345;51.136;16.886;2023-03-05T12:54:30;6.03;;;4.93;;
6955;SDS011;50345;51.136;16.886;2023-03-05T12:57:02;13.25;;;6.53;;
6955;SDS011;50345;51.136;16.886;2023-03-05T12:59:46;4.85;;;3.80;;
6955;SDS011;50345;51.136;16.886;2023-03-05T13:02:22;9.35;;;4.60;;
6955;SDS011;50345;51.136;16.886;2023-03-05T13:04:52;4.70;;;4.35;;
6955;SDS011;50345;51.136;16.886;2023-03-05T13:07:23;6.60;;;4.50;;
6955;SDS011;50345;51.136;16.886;2023-03-05T13:09:53;6.57;;;5.30;;
6955;SDS011;50345;51.136;16.886;2023-03-05T13:12:20;7.18;;;5.72;;
6955;SDS011;50345;51.136;16.886;2023-03-05T13:14:47;9.98;;;6.70;;
6955;SDS011;50345;51.136;16.886;2023-03-05T13:17:39;10.98;;;6.38;;
6955;SDS011;50345;51.136;16.886;2023-03-05T13:20:34;7.82;;;4.95;;
6955;SDS011;50345;51.136;16.886;2023-03-05T13:23:08;5.55;;;5.05;;
6955;SDS011;50345;51.136;16.886;2023-03-05T13:26:23;12.45;;;8.85;;
6955;SDS011;50345;51.136;16.886;2023-03-05T13:29:05;5.07;;;4.35;;
6955;SDS011;50345;51.136;16.886;2023-03-05T13:31:56;8.25;;;6.10;;
6955;SDS011;50345;51.136;16.886;2023-03-05T13:34:25;8.57;;;6.22;;
6955;SDS011;50345;51.136;16.886;2023-03-05T13:39:21;6.25;;;3.92;;
6955;SDS011;50345;51.136;16.886;2023-03-05T13:41:57;9.57;;;4.95;;
6955;SDS011;50345;51.136;16.886;2023-03-05T13:44:28;7.15;;;3.72;;
6955;SDS011;50345;51.136;16.886;2023-03-05T13:47:29;6.10;;;3.53;;
6955;SDS011;50345;51.136;16.886;2023-03-05T13:49:55;5.70;;;3.70;;
6955;SDS011;50345;51.136;16.886;2023-03-05T13:52:29;4.75;;;3.40;;
6955;SDS011;50345;51.136;16.886;2023-03-05T13:54:57;5.70;;;4.20;;
6955;SDS011;50345;51.136;16.886;2023-03-05T13:57:35;7.15;;;4.55;;
6955;SDS011;50345;51.136;16.886;2023-03-05T14:00:06;4.93;;;4.43;;
6955;SDS011;50345;51.136;16.886;2023-03-05T14:02:50;9.13;;;6.07;;
6955;SDS011;50345;51.136;16.886;2023-03-05T14:05:21;5.55;;;5.05;;
6955;SDS011;50345;51.136;16.886;2023-03-05T14:07:48;8.23;;;5.57;;
6955;SDS011;50345;51.136;16.886;2023-03-05T14:13:05;8.10;;;5.55;;
6955;SDS011;50345;51.136;16.886;2023-03-05T14:15:38;7.78;;;5.60;;
6955;SDS011;50345;51.136;16.886;2023-03-05T14:20:35;9.85;;;7.57;;
6955;SDS011;50345;51.136;16.886;2023-03-05T14:23:12;8.93;;;7.05;;
6955;SDS011;50345;51.136;16.886;2023-03-05T14:29:03;5.40;;;4.93;;
6955;SDS011;50345;51.136;16.886;2023-03-05T14:31:48;6.47;;;4.90;;
6955;SDS011;50345;51.136;16.886;2023-03-05T14:34:23;3.78;;;3.47;;
6955;SDS011;50345;51.136;16.886;2023-03-05T14:36:53;7.90;;;6.50;;
6955;SDS011;50345;51.136;16.886;2023-03-05T14:39:39;7.85;;;4.60;;
6955;SDS011;50345;51.136;16.886;2023-03-05T14:44:54;6.68;;;4.28;;
6955;SDS011;50345;51.136;16.886;2023-03-05T14:47:22;4.18;;;3.78;;
6955;SDS011;50345;51.136;16.886;2023-03-05T14:49:48;5.68;;;3.25;;
6955;SDS011;50345;51.136;16.886;2023-03-05T14:52:14;5.47;;;3.53;;
6955;SDS011;50345;51.136;16.886;2023-03-05T14:54:42;7.82;;;5.00;;
6955;SDS011;50345;51.136;16.886;2023-03-05T14:57:09;5.87;;;4.30;;
6955;SDS011;50345;51.136;16.886;2023-03-05T14:59:43;5.93;;;3.72;;
6955;SDS011;50345;51.136;16.886;2023-03-05T15:02:12;19.33;;;11.50;;
6955;SDS011;50345;51.136;16.886;2023-03-05T15:04:43;56.33;;;28.95;;
6955;SDS011;50345;51.136;16.886;2023-03-05T15:07:21;8.43;;;6.57;;
6955;SDS011;50345;51.136;16.886;2023-03-05T15:09:47;4.65;;;4.15;;
6955;SDS011;50345;51.136;16.886;2023-03-05T15:12:13;8.03;;;3.40;;
6955;SDS011;50345;51.136;16.886;2023-03-05T15:14:40;5.85;;;5.18;;
6955;SDS011;50345;51.136;16.886;2023-03-05T15:17:32;5.65;;;4.63;;
6955;SDS011;50345;51.136;16.886;2023-03-05T15:19:53;12.18;;;10.57;;
6955;SDS011;50345;51.136;16.886;2023-03-05T15:22:18;10.17;;;7.90;;
6955;SDS011;50345;51.136;16.886;2023-03-05T15:24:44;8.87;;;7.10;;
6955;SDS011;50345;51.136;16.886;2023-03-05T15:27:10;7.30;;;5.10;;
6955;SDS011;50345;51.136;16.886;2023-03-05T15:29:36;14.73;;;8.98;;
6955;SDS011;50345;51.136;16.886;2023-03-05T15:32:02;16.40;;;12.50;;
6955;SDS011;50345;51.136;16.886;2023-03-05T15:34:29;18.13;;;15.25;;
6955;SDS011;50345;51.136;16.886;2023-03-05T15:36:55;22.40;;;18.88;;
6955;SDS011;50345;51.136;16.886;2023-03-05T15:39:24;21.53;;;16.70;;
6955;SDS011;50345;51.136;16.886;2023-03-05T15:41:50;23.27;;;17.38;;
6955;SDS011;50345;51.136;16.886;2023-03-05T15:44:16;25.00;;;20.00;;
6955;SDS011;50345;51.136;16.886;2023-03-05T15:46:42;13.90;;;12.40;;
6955;SDS011;50345;51.136;16.886;2023-03-05T15:49:07;18.87;;;15.10;;
6955;SDS011;50345;51.136;16.886;2023-03-05T15:51:33;14.73;;;13.20;;
6955;SDS011;50345;51.136;16.886;2023-03-05T15:53:58;15.57;;;12.50;;
6955;SDS011;50345;51.136;16.886;2023-03-05T15:56:24;14.37;;;10.50;;
6955;SDS011;50345;51.136;16.886;2023-03-05T15:58:50;10.00;;;8.70;;
6955;SDS011;50345;51.136;16.886;2023-03-05T16:01:15;26.30;;;19.20;;
6955;SDS011;50345;51.136;16.886;2023-03-05T16:03:43;14.85;;;13.27;;
6955;SDS011;50345;51.136;16.886;2023-03-05T16:06:09;19.35;;;17.20;;
6955;SDS011;50345;51.136;16.886;2023-03-05T16:08:36;17.30;;;15.55;;
6955;SDS011;50345;51.136;16.886;2023-03-05T16:11:03;13.40;;;10.85;;
6955;SDS011;50345;51.136;16.886;2023-03-05T16:13:29;10.88;;;9.35;;
6955;SDS011;50345;51.136;16.886;2023-03-05T16:15:56;10.45;;;9.45;;
6955;SDS011;50345;51.136;16.886;2023-03-05T16:18:22;9.88;;;8.63;;
6955;SDS011;50345;51.136;16.886;2023-03-05T16:20:49;11.60;;;10.32;;
6955;SDS011;50345;51.136;16.886;2023-03-05T16:23:15;10.55;;;9.15;;
6955;SDS011;50345;51.136;16.886;2023-03-05T16:25:41;14.38;;;9.77;;
6955;SDS011;50345;51.136;16.886;2023-03-05T16:28:07;7.60;;;6.80;;
6955;SDS011;50345;51.136;16.886;2023-03-05T16:30:34;9.18;;;7.60;;
6955;SDS011;50345;51.136;16.886;2023-03-05T16:33:00;7.77;;;6.97;;
6955;SDS011;50345;51.136;16.886;2023-03-05T16:35:25;15.87;;;7.57;;